This is the latest recevied weather packets stored in our database for station/object IW4DZV-13. If no packets are shown the sender has not sent any weather packets the latest 10 day(s).
| Time | Temp. | Humidity | Pressure | Rain* | Wind** | Luminosity | Snow |
|---|---|---|---|---|---|---|---|
| 1777666538 | 12.78° C | 48% | 1024.9 hPa | 0 mm | - | 0 W/m² | - |
| 1777665638 | 13.33° C | 47% | 1025 hPa | 0 mm | - | 0 W/m² | - |
| 1777664742 | 13.33° C | 45% | 1024.8 hPa | 0 mm | - | 0 W/m² | - |
| 1777663838 | 13.89° C | 45% | 1024.7 hPa | 0 mm | - | 0 W/m² | - |
| 1777662937 | 14.44° C | 43% | 1024.6 hPa | 0 mm | - | 0 W/m² | - |
| 1777662037 | 15° C | 41% | 1024.6 hPa | 0 mm | - | 0 W/m² | - |
| 1777661136 | 15° C | 41% | 1024.5 hPa | 0 mm | - | 0 W/m² | - |
| 1777660238 | 16.11° C | 40% | 1024.3 hPa | 0 mm | - | 0 W/m² | - |
| 1777659334 | 16.67° C | 38% | 1024.3 hPa | 0 mm | - | 5 W/m² | - |
| 1777658439 | 17.22° C | 37% | 1024.2 hPa | 0 mm | - | 11 W/m² | - |
| 1777657541 | 17.22° C | 37% | 1024.2 hPa | 0 mm | - | 14 W/m² | - |
| 1777656640 | 17.22° C | 37% | 1024 hPa | 0 mm | - | 18 W/m² | - |
| 1777655732 | 17.78° C | 34% | 1024 hPa | 0 mm | - | 21 W/m² | - |
| 1777654832 | 17.78° C | 32% | 1024.1 hPa | 0 mm | - | 25 W/m² | - |
| 1777653943 | 18.33° C | 30% | 1024.1 hPa | 0 mm | - | 26 W/m² | - |
| 1777653031 | 18.33° C | 30% | 1024.2 hPa | 0 mm | - | 28 W/m² | - |
| 1777652132 | 18.89° C | 28% | 1024.3 hPa | 0 mm | - | 30 W/m² | - |
| 1777651233 | 20° C | 27% | 1024.3 hPa | 0 mm | - | 336 W/m² | - |
| 1777650351 | 20° C | 27% | 1024.6 hPa | 0 mm | - | 380 W/m² | - |
| 1777649442 | 19.44° C | 29% | 1024.6 hPa | 0 mm | - | 422 W/m² | - |
| 1777648525 | 18.89° C | 29% | 1024.7 hPa | 0 mm | - | 446 W/m² | - |
| 1777647623 | 18.33° C | 30% | 1025 hPa | 0 mm | - | 253 W/m² | - |
| 1777646723 | 18.33° C | 28% | 1025.1 hPa | 0 mm | - | 44 W/m² | - |
| 1777645827 | 18.33° C | 30% | 1025.2 hPa | 0 mm | - | 40 W/m² | - |
| 1777644921 | 18.33° C | 28% | 1025.2 hPa | 0 mm | - | 49 W/m² | - |
* Rain since midnight (hover to see other rain measurements)
** Current wind speed in m/s (hover to see current wind gust speed)